sensor_id;sensor_type;location;lat;lon;timestamp;temperature;humidity
36450;DHT22;22475;51.390;7.180;2023-07-20T00:01:24;20.70;89.70
36450;DHT22;22475;51.390;7.180;2023-07-20T00:03:51;20.70;89.70
36450;DHT22;22475;51.390;7.180;2023-07-20T00:06:21;20.70;89.70
36450;DHT22;22475;51.390;7.180;2023-07-20T00:08:47;20.70;89.70
36450;DHT22;22475;51.390;7.180;2023-07-20T00:11:14;20.70;89.70
36450;DHT22;22475;51.390;7.180;2023-07-20T00:13:40;20.70;89.70
36450;DHT22;22475;51.390;7.180;2023-07-20T00:16:08;20.70;89.70
36450;DHT22;22475;51.390;7.180;2023-07-20T00:18:35;20.70;89.70
36450;DHT22;22475;51.390;7.180;2023-07-20T00:21:01;20.70;89.70
36450;DHT22;22475;51.390;7.180;2023-07-20T00:23:29;20.70;89.70
36450;DHT22;22475;51.390;7.180;2023-07-20T00:25:56;20.70;89.80
36450;DHT22;22475;51.390;7.180;2023-07-20T00:28:22;20.70;89.70
36450;DHT22;22475;51.390;7.180;2023-07-20T00:30:49;20.70;89.80
36450;DHT22;22475;51.390;7.180;2023-07-20T00:33:17;20.70;89.80
36450;DHT22;22475;51.390;7.180;2023-07-20T00:35:44;20.70;89.80
36450;DHT22;22475;51.390;7.180;2023-07-20T00:38:10;20.70;89.80
36450;DHT22;22475;51.390;7.180;2023-07-20T00:40:37;20.70;89.80
36450;DHT22;22475;51.390;7.180;2023-07-20T00:43:04;20.70;89.80
36450;DHT22;22475;51.390;7.180;2023-07-20T00:45:31;20.70;89.80
36450;DHT22;22475;51.390;7.180;2023-07-20T00:47:58;20.70;89.80
36450;DHT22;22475;51.390;7.180;2023-07-20T00:50:28;20.60;89.80
36450;DHT22;22475;51.390;7.180;2023-07-20T00:52:54;20.70;89.80
36450;DHT22;22475;51.390;7.180;2023-07-20T00:55:21;20.70;89.80
36450;DHT22;22475;51.390;7.180;2023-07-20T00:57:48;20.70;89.80
36450;DHT22;22475;51.390;7.180;2023-07-20T01:00:16;20.70;89.80
36450;DHT22;22475;51.390;7.180;2023-07-20T01:02:42;20.70;89.80
36450;DHT22;22475;51.390;7.180;2023-07-20T01:05:09;20.70;89.80
36450;DHT22;22475;51.390;7.180;2023-07-20T01:07:40;20.60;89.80
36450;DHT22;22475;51.390;7.180;2023-07-20T01:10:10;20.60;89.80
36450;DHT22;22475;51.390;7.180;2023-07-20T01:12:40;20.60;89.80
36450;DHT22;22475;51.390;7.180;2023-07-20T01:15:07;20.60;89.80
36450;DHT22;22475;51.390;7.180;2023-07-20T01:17:34;20.60;89.80
36450;DHT22;22475;51.390;7.180;2023-07-20T01:20:01;20.60;89.80
36450;DHT22;22475;51.390;7.180;2023-07-20T01:22:33;20.70;89.90
36450;DHT22;22475;51.390;7.180;2023-07-20T01:25:09;20.60;89.80
36450;DHT22;22475;51.390;7.180;2023-07-20T01:30:35;20.60;89.80
36450;DHT22;22475;51.390;7.180;2023-07-20T01:33:10;20.60;89.80
36450;DHT22;22475;51.390;7.180;2023-07-20T01:35:38;20.60;89.80
36450;DHT22;22475;51.390;7.180;2023-07-20T01:38:04;20.60;89.80
36450;DHT22;22475;51.390;7.180;2023-07-20T01:40:32;20.60;90.30
36450;DHT22;22475;51.390;7.180;2023-07-20T01:42:59;20.60;89.80
36450;DHT22;22475;51.390;7.180;2023-07-20T01:45:25;20.60;89.90
36450;DHT22;22475;51.390;7.180;2023-07-20T01:47:52;20.60;89.80
36450;DHT22;22475;51.390;7.180;2023-07-20T01:50:20;20.60;89.80
36450;DHT22;22475;51.390;7.180;2023-07-20T01:52:47;20.60;89.90
36450;DHT22;22475;51.390;7.180;2023-07-20T01:55:13;20.60;89.90
36450;DHT22;22475;51.390;7.180;2023-07-20T01:57:40;20.60;89.90
36450;DHT22;22475;51.390;7.180;2023-07-20T02:00:07;20.60;89.90
36450;DHT22;22475;51.390;7.180;2023-07-20T02:02:35;20.60;89.90
36450;DHT22;22475;51.390;7.180;2023-07-20T02:05:01;20.60;89.90
36450;DHT22;22475;51.390;7.180;2023-07-20T02:07:29;20.60;89.90
36450;DHT22;22475;51.390;7.180;2023-07-20T02:09:56;20.60;89.90
36450;DHT22;22475;51.390;7.180;2023-07-20T02:12:22;20.60;90.00
36450;DHT22;22475;51.390;7.180;2023-07-20T02:14:49;20.60;90.00
36450;DHT22;22475;51.390;7.180;2023-07-20T02:17:16;20.60;89.90
36450;DHT22;22475;51.390;7.180;2023-07-20T02:19:43;20.50;89.80
36450;DHT22;22475;51.390;7.180;2023-07-20T02:22:09;20.50;89.90
36450;DHT22;22475;51.390;7.180;2023-07-20T02:24:37;20.60;90.00
36450;DHT22;22475;51.390;7.180;2023-07-20T02:27:04;20.60;90.00
36450;DHT22;22475;51.390;7.180;2023-07-20T02:29:32;20.60;90.00
36450;DHT22;22475;51.390;7.180;2023-07-20T02:31:59;20.60;90.00
36450;DHT22;22475;51.390;7.180;2023-07-20T02:34:25;20.60;90.00
36450;DHT22;22475;51.390;7.180;2023-07-20T02:36:52;20.60;90.00
36450;DHT22;22475;51.390;7.180;2023-07-20T02:39:21;20.50;90.00
36450;DHT22;22475;51.390;7.180;2023-07-20T02:41:49;20.60;90.00
36450;DHT22;22475;51.390;7.180;2023-07-20T02:44:16;20.50;90.00
36450;DHT22;22475;51.390;7.180;2023-07-20T02:46:42;20.50;90.00
36450;DHT22;22475;51.390;7.180;2023-07-20T02:49:09;20.50;90.00
36450;DHT22;22475;51.390;7.180;2023-07-20T02:51:35;20.60;90.00
36450;DHT22;22475;51.390;7.180;2023-07-20T02:54:02;20.60;90.00
36450;DHT22;22475;51.390;7.180;2023-07-20T02:56:29;20.50;90.00
36450;DHT22;22475;51.390;7.180;2023-07-20T02:58:57;20.50;90.00
36450;DHT22;22475;51.390;7.180;2023-07-20T03:01:24;20.60;90.00
36450;DHT22;22475;51.390;7.180;2023-07-20T03:03:54;20.50;90.00
36450;DHT22;22475;51.390;7.180;2023-07-20T03:06:21;20.50;90.00
36450;DHT22;22475;51.390;7.180;2023-07-20T03:08:47;20.60;90.00
36450;DHT22;22475;51.390;7.180;2023-07-20T03:11:17;20.50;90.00
36450;DHT22;22475;51.390;7.180;2023-07-20T03:13:44;20.50;90.00
36450;DHT22;22475;51.390;7.180;2023-07-20T03:16:13;20.50;90.00
36450;DHT22;22475;51.390;7.180;2023-07-20T03:18:40;20.50;90.00
36450;DHT22;22475;51.390;7.180;2023-07-20T03:21:07;20.50;90.00
36450;DHT22;22475;51.390;7.180;2023-07-20T03:23:34;20.50;90.00
36450;DHT22;22475;51.390;7.180;2023-07-20T03:26:01;20.50;90.00
36450;DHT22;22475;51.390;7.180;2023-07-20T03:28:27;20.50;90.10
36450;DHT22;22475;51.390;7.180;2023-07-20T03:30:54;20.50;90.00
36450;DHT22;22475;51.390;7.180;2023-07-20T03:33:24;20.50;90.00
36450;DHT22;22475;51.390;7.180;2023-07-20T03:35:51;20.50;90.00
36450;DHT22;22475;51.390;7.180;2023-07-20T03:38:17;20.50;90.00
36450;DHT22;22475;51.390;7.180;2023-07-20T03:40:50;20.50;90.10
36450;DHT22;22475;51.390;7.180;2023-07-20T03:43:17;20.50;90.00
36450;DHT22;22475;51.390;7.180;2023-07-20T03:45:44;20.50;90.10
36450;DHT22;22475;51.390;7.180;2023-07-20T03:48:10;20.50;90.00
36450;DHT22;22475;51.390;7.180;2023-07-20T03:50:38;20.50;90.10
36450;DHT22;22475;51.390;7.180;2023-07-20T03:53:05;20.50;90.10
36450;DHT22;22475;51.390;7.180;2023-07-20T03:55:31;20.50;90.10
36450;DHT22;22475;51.390;7.180;2023-07-20T03:57:58;20.50;90.10
36450;DHT22;22475;51.390;7.180;2023-07-20T04:00:25;20.50;90.10
36450;DHT22;22475;51.390;7.180;2023-07-20T04:02:51;20.50;90.10
36450;DHT22;22475;51.390;7.180;2023-07-20T04:05:18;20.50;90.10
36450;DHT22;22475;51.390;7.180;2023-07-20T04:07:46;20.50;90.10
36450;DHT22;22475;51.390;7.180;2023-07-20T04:10:12;20.50;90.10
36450;DHT22;22475;51.390;7.180;2023-07-20T04:12:39;20.50;90.10
36450;DHT22;22475;51.390;7.180;2023-07-20T04:15:06;20.50;90.10
36450;DHT22;22475;51.390;7.180;2023-07-20T04:17:33;20.50;90.10
36450;DHT22;22475;51.390;7.180;2023-07-20T04:19:59;20.50;90.10
36450;DHT22;22475;51.390;7.180;2023-07-20T04:22:26;20.50;90.10
36450;DHT22;22475;51.390;7.180;2023-07-20T04:24:54;20.50;90.10
36450;DHT22;22475;51.390;7.180;2023-07-20T04:27:21;20.50;90.10
36450;DHT22;22475;51.390;7.180;2023-07-20T04:29:47;20.50;90.10
36450;DHT22;22475;51.390;7.180;2023-07-20T04:32:14;20.50;90.10
36450;DHT22;22475;51.390;7.180;2023-07-20T04:34:41;20.50;90.10
36450;DHT22;22475;51.390;7.180;2023-07-20T04:37:07;20.50;90.10
36450;DHT22;22475;51.390;7.180;2023-07-20T04:39:34;20.50;90.10
36450;DHT22;22475;51.390;7.180;2023-07-20T04:42:02;20.50;90.10
36450;DHT22;22475;51.390;7.180;2023-07-20T04:44:28;20.50;90.10
36450;DHT22;22475;51.390;7.180;2023-07-20T04:46:55;20.50;90.10
36450;DHT22;22475;51.390;7.180;2023-07-20T04:49:21;20.50;90.10
36450;DHT22;22475;51.390;7.180;2023-07-20T04:51:48;20.50;90.10
36450;DHT22;22475;51.390;7.180;2023-07-20T04:54:15;20.50;90.20
36450;DHT22;22475;51.390;7.180;2023-07-20T04:56:42;20.50;90.20
36450;DHT22;22475;51.390;7.180;2023-07-20T04:59:10;20.50;90.20
36450;DHT22;22475;51.390;7.180;2023-07-20T05:01:37;20.50;90.20
36450;DHT22;22475;51.390;7.180;2023-07-20T05:04:04;20.50;90.20
36450;DHT22;22475;51.390;7.180;2023-07-20T05:06:30;20.50;90.20
36450;DHT22;22475;51.390;7.180;2023-07-20T05:08:57;20.50;90.20
36450;DHT22;22475;51.390;7.180;2023-07-20T05:11:23;20.50;90.20
36450;DHT22;22475;51.390;7.180;2023-07-20T05:13:50;20.50;90.20
36450;DHT22;22475;51.390;7.180;2023-07-20T05:16:18;20.50;90.20
36450;DHT22;22475;51.390;7.180;2023-07-20T05:18:44;20.50;90.20
36450;DHT22;22475;51.390;7.180;2023-07-20T05:21:11;20.50;90.20
36450;DHT22;22475;51.390;7.180;2023-07-20T05:23:38;20.50;90.20
36450;DHT22;22475;51.390;7.180;2023-07-20T05:26:04;20.50;90.20
36450;DHT22;22475;51.390;7.180;2023-07-20T05:28:31;20.50;90.20
36450;DHT22;22475;51.390;7.180;2023-07-20T05:30:58;20.50;90.20
36450;DHT22;22475;51.390;7.180;2023-07-20T05:33:26;20.50;90.20
36450;DHT22;22475;51.390;7.180;2023-07-20T05:35:52;20.50;90.20
36450;DHT22;22475;51.390;7.180;2023-07-20T05:38:19;20.50;90.20
36450;DHT22;22475;51.390;7.180;2023-07-20T05:40:46;20.50;90.20
36450;DHT22;22475;51.390;7.180;2023-07-20T05:43:13;20.50;90.20
36450;DHT22;22475;51.390;7.180;2023-07-20T05:45:41;20.50;90.20
36450;DHT22;22475;51.390;7.180;2023-07-20T05:48:08;20.50;90.20
36450;DHT22;22475;51.390;7.180;2023-07-20T05:50:37;20.50;90.20
36450;DHT22;22475;51.390;7.180;2023-07-20T05:53:04;20.50;90.20
36450;DHT22;22475;51.390;7.180;2023-07-20T05:55:31;20.50;90.20
36450;DHT22;22475;51.390;7.180;2023-07-20T05:57:58;20.50;90.20
36450;DHT22;22475;51.390;7.180;2023-07-20T06:00:25;20.50;90.20
36450;DHT22;22475;51.390;7.180;2023-07-20T06:02:52;20.50;90.20
36450;DHT22;22475;51.390;7.180;2023-07-20T06:05:18;20.50;90.20
36450;DHT22;22475;51.390;7.180;2023-07-20T06:07:46;20.50;90.30
36450;DHT22;22475;51.390;7.180;2023-07-20T06:10:13;20.40;90.20
36450;DHT22;22475;51.390;7.180;2023-07-20T06:12:40;20.50;90.30
36450;DHT22;22475;51.390;7.180;2023-07-20T06:15:23;20.40;90.20
36450;DHT22;22475;51.390;7.180;2023-07-20T06:17:50;20.40;90.20
36450;DHT22;22475;51.390;7.180;2023-07-20T06:20:17;20.40;90.30
36450;DHT22;22475;51.390;7.180;2023-07-20T06:22:44;20.50;90.30
36450;DHT22;22475;51.390;7.180;2023-07-20T06:25:12;20.40;90.30
36450;DHT22;22475;51.390;7.180;2023-07-20T06:27:38;20.50;90.30
36450;DHT22;22475;51.390;7.180;2023-07-20T06:30:05;20.40;90.30
36450;DHT22;22475;51.390;7.180;2023-07-20T06:32:32;20.40;90.30
36450;DHT22;22475;51.390;7.180;2023-07-20T06:34:59;20.50;90.30
36450;DHT22;22475;51.390;7.180;2023-07-20T06:37:25;20.40;90.30
36450;DHT22;22475;51.390;7.180;2023-07-20T06:39:52;20.40;90.30
36450;DHT22;22475;51.390;7.180;2023-07-20T06:42:20;20.40;90.40
36450;DHT22;22475;51.390;7.180;2023-07-20T06:44:46;20.40;90.30
36450;DHT22;22475;51.390;7.180;2023-07-20T06:47:13;20.40;90.30
36450;DHT22;22475;51.390;7.180;2023-07-20T06:49:39;20.40;90.30
36450;DHT22;22475;51.390;7.180;2023-07-20T06:52:06;20.40;90.30
36450;DHT22;22475;51.390;7.180;2023-07-20T06:54:33;20.40;90.30
36450;DHT22;22475;51.390;7.180;2023-07-20T06:57:00;20.40;90.30
36450;DHT22;22475;51.390;7.180;2023-07-20T06:59:27;20.40;90.30
36450;DHT22;22475;51.390;7.180;2023-07-20T07:01:54;20.40;90.30
36450;DHT22;22475;51.390;7.180;2023-07-20T07:04:21;20.40;90.30
36450;DHT22;22475;51.390;7.180;2023-07-20T07:06:48;20.40;90.30
36450;DHT22;22475;51.390;7.180;2023-07-20T07:09:14;20.40;90.30
36450;DHT22;22475;51.390;7.180;2023-07-20T07:11:41;20.40;90.30
36450;DHT22;22475;51.390;7.180;2023-07-20T07:14:07;20.40;90.30
36450;DHT22;22475;51.390;7.180;2023-07-20T07:16:35;20.40;90.30
36450;DHT22;22475;51.390;7.180;2023-07-20T07:19:02;20.40;90.70
36450;DHT22;22475;51.390;7.180;2023-07-20T07:21:28;20.40;90.30
36450;DHT22;22475;51.390;7.180;2023-07-20T07:23:55;20.40;90.30
36450;DHT22;22475;51.390;7.180;2023-07-20T07:26:24;20.40;90.30
36450;DHT22;22475;51.390;7.180;2023-07-20T07:28:51;20.40;90.40
36450;DHT22;22475;51.390;7.180;2023-07-20T07:31:17;20.40;90.40
36450;DHT22;22475;51.390;7.180;2023-07-20T07:33:45;20.40;90.30
36450;DHT22;22475;51.390;7.180;2023-07-20T07:36:12;20.40;90.30
36450;DHT22;22475;51.390;7.180;2023-07-20T07:38:38;20.40;90.40
36450;DHT22;22475;51.390;7.180;2023-07-20T07:41:05;20.40;90.30
36450;DHT22;22475;51.390;7.180;2023-07-20T07:43:31;20.40;90.30
36450;DHT22;22475;51.390;7.180;2023-07-20T07:45:58;20.40;90.40
36450;DHT22;22475;51.390;7.180;2023-07-20T07:48:25;20.40;90.70
36450;DHT22;22475;51.390;7.180;2023-07-20T07:50:53;20.40;90.40
36450;DHT22;22475;51.390;7.180;2023-07-20T07:53:19;20.40;90.40
36450;DHT22;22475;51.390;7.180;2023-07-20T07:55:47;20.40;90.40
36450;DHT22;22475;51.390;7.180;2023-07-20T07:58:13;20.40;90.40
36450;DHT22;22475;51.390;7.180;2023-07-20T08:00:40;20.40;90.40
36450;DHT22;22475;51.390;7.180;2023-07-20T08:03:07;20.40;90.40
36450;DHT22;22475;51.390;7.180;2023-07-20T08:05:33;20.40;90.40
36450;DHT22;22475;51.390;7.180;2023-07-20T08:08:02;20.40;90.40
36450;DHT22;22475;51.390;7.180;2023-07-20T08:10:29;20.40;90.40
36450;DHT22;22475;51.390;7.180;2023-07-20T08:12:55;20.40;90.40
36450;DHT22;22475;51.390;7.180;2023-07-20T08:15:22;20.40;90.40
36450;DHT22;22475;51.390;7.180;2023-07-20T08:17:48;20.40;90.40
36450;DHT22;22475;51.390;7.180;2023-07-20T08:20:17;20.40;90.40
36450;DHT22;22475;51.390;7.180;2023-07-20T08:22:43;20.40;90.40
36450;DHT22;22475;51.390;7.180;2023-07-20T08:25:11;20.40;90.70
36450;DHT22;22475;51.390;7.180;2023-07-20T08:27:38;20.40;90.40
36450;DHT22;22475;51.390;7.180;2023-07-20T08:30:06;20.40;90.40
36450;DHT22;22475;51.390;7.180;2023-07-20T08:32:33;20.40;90.50
36450;DHT22;22475;51.390;7.180;2023-07-20T08:35:00;20.40;90.40
36450;DHT22;22475;51.390;7.180;2023-07-20T08:37:26;20.40;90.40
36450;DHT22;22475;51.390;7.180;2023-07-20T08:39:53;20.40;90.40
36450;DHT22;22475;51.390;7.180;2023-07-20T08:42:21;20.40;90.40
36450;DHT22;22475;51.390;7.180;2023-07-20T08:44:49;20.40;90.40
36450;DHT22;22475;51.390;7.180;2023-07-20T08:47:16;20.40;90.40
36450;DHT22;22475;51.390;7.180;2023-07-20T08:49:42;20.50;90.40
36450;DHT22;22475;51.390;7.180;2023-07-20T08:52:09;20.50;90.40
36450;DHT22;22475;51.390;7.180;2023-07-20T08:54:36;20.40;90.40
36450;DHT22;22475;51.390;7.180;2023-07-20T08:57:03;20.40;90.40
36450;DHT22;22475;51.390;7.180;2023-07-20T08:59:31;20.40;90.40
36450;DHT22;22475;51.390;7.180;2023-07-20T09:01:58;20.50;90.40
36450;DHT22;22475;51.390;7.180;2023-07-20T09:04:25;20.40;90.40
36450;DHT22;22475;51.390;7.180;2023-07-20T09:06:52;20.50;90.40
36450;DHT22;22475;51.390;7.180;2023-07-20T09:09:19;20.40;90.40
36450;DHT22;22475;51.390;7.180;2023-07-20T09:11:47;20.50;90.40
36450;DHT22;22475;51.390;7.180;2023-07-20T09:14:13;20.40;90.40
36450;DHT22;22475;51.390;7.180;2023-07-20T09:16:52;20.50;90.40
36450;DHT22;22475;51.390;7.180;2023-07-20T09:19:18;20.50;90.40
36450;DHT22;22475;51.390;7.180;2023-07-20T09:21:46;20.40;90.40
36450;DHT22;22475;51.390;7.180;2023-07-20T09:24:13;20.50;90.40
36450;DHT22;22475;51.390;7.180;2023-07-20T09:26:40;20.50;90.40
36450;DHT22;22475;51.390;7.180;2023-07-20T09:29:07;20.40;90.40
36450;DHT22;22475;51.390;7.180;2023-07-20T09:31:34;20.50;90.40
36450;DHT22;22475;51.390;7.180;2023-07-20T09:34:01;20.50;90.40
36450;DHT22;22475;51.390;7.180;2023-07-20T09:36:29;20.40;90.40
36450;DHT22;22475;51.390;7.180;2023-07-20T09:38:58;20.40;90.40
36450;DHT22;22475;51.390;7.180;2023-07-20T09:41:25;20.50;90.40
36450;DHT22;22475;51.390;7.180;2023-07-20T09:43:52;20.50;90.50
36450;DHT22;22475;51.390;7.180;2023-07-20T09:46:19;20.40;90.40
36450;DHT22;22475;51.390;7.180;2023-07-20T09:48:51;20.40;90.80
36450;DHT22;22475;51.390;7.180;2023-07-20T09:51:20;20.50;90.50
36450;DHT22;22475;51.390;7.180;2023-07-20T09:53:47;20.50;90.50
36450;DHT22;22475;51.390;7.180;2023-07-20T09:56:15;20.40;90.40
36450;DHT22;22475;51.390;7.180;2023-07-20T09:58:43;20.50;90.50
36450;DHT22;22475;51.390;7.180;2023-07-20T10:01:10;20.40;90.40
36450;DHT22;22475;51.390;7.180;2023-07-20T10:03:39;20.40;90.40
36450;DHT22;22475;51.390;7.180;2023-07-20T10:06:08;20.40;90.40
36450;DHT22;22475;51.390;7.180;2023-07-20T10:08:38;20.50;90.50
36450;DHT22;22475;51.390;7.180;2023-07-20T10:11:05;20.50;90.50
36450;DHT22;22475;51.390;7.180;2023-07-20T10:13:35;20.50;90.50
36450;DHT22;22475;51.390;7.180;2023-07-20T10:16:05;20.50;90.50
36450;DHT22;22475;51.390;7.180;2023-07-20T10:18:35;20.50;90.50
36450;DHT22;22475;51.390;7.180;2023-07-20T10:21:05;20.50;90.50
36450;DHT22;22475;51.390;7.180;2023-07-20T10:23:32;20.50;90.50
36450;DHT22;22475;51.390;7.180;2023-07-20T10:26:00;20.50;90.50
36450;DHT22;22475;51.390;7.180;2023-07-20T10:28:27;20.50;90.50
36450;DHT22;22475;51.390;7.180;2023-07-20T10:30:54;20.50;90.50
36450;DHT22;22475;51.390;7.180;2023-07-20T10:33:21;20.50;90.40
36450;DHT22;22475;51.390;7.180;2023-07-20T10:35:50;20.50;90.40
36450;DHT22;22475;51.390;7.180;2023-07-20T10:38:17;20.50;90.50
36450;DHT22;22475;51.390;7.180;2023-07-20T10:40:44;20.50;90.50
36450;DHT22;22475;51.390;7.180;2023-07-20T10:43:21;20.50;90.40
36450;DHT22;22475;51.390;7.180;2023-07-20T10:45:48;20.50;90.40
36450;DHT22;22475;51.390;7.180;2023-07-20T10:48:16;20.50;90.40
36450;DHT22;22475;51.390;7.180;2023-07-20T10:50:43;20.50;90.40
36450;DHT22;22475;51.390;7.180;2023-07-20T10:53:12;20.50;90.40
36450;DHT22;22475;51.390;7.180;2023-07-20T10:55:39;20.50;90.50
36450;DHT22;22475;51.390;7.180;2023-07-20T10:58:07;20.50;90.50
36450;DHT22;22475;51.390;7.180;2023-07-20T11:00:35;20.50;90.40
36450;DHT22;22475;51.390;7.180;2023-07-20T11:03:01;20.50;90.50
36450;DHT22;22475;51.390;7.180;2023-07-20T11:05:35;20.50;90.50
36450;DHT22;22475;51.390;7.180;2023-07-20T11:08:05;20.50;90.50
36450;DHT22;22475;51.390;7.180;2023-07-20T11:10:32;20.50;90.40
36450;DHT22;22475;51.390;7.180;2023-07-20T11:13:17;20.50;90.40
36450;DHT22;22475;51.390;7.180;2023-07-20T11:15:45;20.50;90.50
36450;DHT22;22475;51.390;7.180;2023-07-20T11:18:12;20.50;90.40
36450;DHT22;22475;51.390;7.180;2023-07-20T11:20:39;20.50;90.40
36450;DHT22;22475;51.390;7.180;2023-07-20T11:23:06;20.50;90.40
36450;DHT22;22475;51.390;7.180;2023-07-20T11:25:37;20.50;90.40
36450;DHT22;22475;51.390;7.180;2023-07-20T11:28:06;20.50;90.50
36450;DHT22;22475;51.390;7.180;2023-07-20T11:30:33;20.50;90.40
36450;DHT22;22475;51.390;7.180;2023-07-20T11:33:01;20.50;90.40
36450;DHT22;22475;51.390;7.180;2023-07-20T11:35:27;20.50;90.40
36450;DHT22;22475;51.390;7.180;2023-07-20T11:37:54;20.50;90.40
36450;DHT22;22475;51.390;7.180;2023-07-20T11:40:21;20.50;90.40
36450;DHT22;22475;51.390;7.180;2023-07-20T11:42:48;20.60;90.50
36450;DHT22;22475;51.390;7.180;2023-07-20T11:45:15;20.50;90.40
36450;DHT22;22475;51.390;7.180;2023-07-20T11:47:43;20.50;90.40
36450;DHT22;22475;51.390;7.180;2023-07-20T11:50:11;20.50;90.50
36450;DHT22;22475;51.390;7.180;2023-07-20T11:52:39;20.50;90.40
36450;DHT22;22475;51.390;7.180;2023-07-20T11:55:07;20.50;90.40
36450;DHT22;22475;51.390;7.180;2023-07-20T11:57:33;20.50;90.50
36450;DHT22;22475;51.390;7.180;2023-07-20T12:00:02;20.50;90.40
36450;DHT22;22475;51.390;7.180;2023-07-20T12:02:31;20.50;90.40
36450;DHT22;22475;51.390;7.180;2023-07-20T12:04:57;20.50;90.40
36450;DHT22;22475;51.390;7.180;2023-07-20T12:07:26;20.50;90.40
36450;DHT22;22475;51.390;7.180;2023-07-20T12:10:03;20.50;90.40
36450;DHT22;22475;51.390;7.180;2023-07-20T12:12:31;20.60;90.40
36450;DHT22;22475;51.390;7.180;2023-07-20T12:15:11;20.50;90.40
36450;DHT22;22475;51.390;7.180;2023-07-20T12:17:41;20.50;90.40
36450;DHT22;22475;51.390;7.180;2023-07-20T12:20:08;20.50;90.40
36450;DHT22;22475;51.390;7.180;2023-07-20T12:22:39;20.60;90.50
36450;DHT22;22475;51.390;7.180;2023-07-20T12:25:06;20.60;90.40
36450;DHT22;22475;51.390;7.180;2023-07-20T12:27:32;20.60;90.50
36450;DHT22;22475;51.390;7.180;2023-07-20T12:29:59;20.60;90.40
36450;DHT22;22475;51.390;7.180;2023-07-20T12:32:26;20.60;90.40
36450;DHT22;22475;51.390;7.180;2023-07-20T12:34:52;20.60;90.50
36450;DHT22;22475;51.390;7.180;2023-07-20T12:37:19;20.60;90.50
36450;DHT22;22475;51.390;7.180;2023-07-20T12:39:47;20.60;90.40
36450;DHT22;22475;51.390;7.180;2023-07-20T12:42:14;20.50;90.40
36450;DHT22;22475;51.390;7.180;2023-07-20T12:44:41;20.60;90.40
36450;DHT22;22475;51.390;7.180;2023-07-20T12:47:08;20.50;90.40
36450;DHT22;22475;51.390;7.180;2023-07-20T12:49:34;20.50;90.40
36450;DHT22;22475;51.390;7.180;2023-07-20T12:52:01;20.60;90.40
36450;DHT22;22475;51.390;7.180;2023-07-20T12:54:28;20.50;90.40
36450;DHT22;22475;51.390;7.180;2023-07-20T12:56:56;20.50;90.40
36450;DHT22;22475;51.390;7.180;2023-07-20T12:59:23;20.50;90.40
36450;DHT22;22475;51.390;7.180;2023-07-20T13:01:49;20.60;90.80
36450;DHT22;22475;51.390;7.180;2023-07-20T13:04:16;20.50;90.40
36450;DHT22;22475;51.390;7.180;2023-07-20T13:06:43;20.50;90.40
36450;DHT22;22475;51.390;7.180;2023-07-20T13:09:09;20.60;90.40
36450;DHT22;22475;51.390;7.180;2023-07-20T13:11:36;20.60;90.40
36450;DHT22;22475;51.390;7.180;2023-07-20T13:14:04;20.50;90.40
36450;DHT22;22475;51.390;7.180;2023-07-20T13:16:30;20.60;90.40
36450;DHT22;22475;51.390;7.180;2023-07-20T13:18:57;20.50;90.40
36450;DHT22;22475;51.390;7.180;2023-07-20T13:21:23;20.50;90.40
36450;DHT22;22475;51.390;7.180;2023-07-20T13:23:50;20.50;90.40
36450;DHT22;22475;51.390;7.180;2023-07-20T13:26:16;20.50;90.40
36450;DHT22;22475;51.390;7.180;2023-07-20T13:28:43;20.50;90.40
36450;DHT22;22475;51.390;7.180;2023-07-20T13:31:11;20.50;90.40
36450;DHT22;22475;51.390;7.180;2023-07-20T13:33:38;20.50;90.40
36450;DHT22;22475;51.390;7.180;2023-07-20T13:36:04;20.60;90.40
36450;DHT22;22475;51.390;7.180;2023-07-20T13:38:31;20.60;90.40
36450;DHT22;22475;51.390;7.180;2023-07-20T13:40:58;20.50;90.40
36450;DHT22;22475;51.390;7.180;2023-07-20T13:43:25;20.60;90.40
36450;DHT22;22475;51.390;7.180;2023-07-20T13:45:51;20.60;90.40
36450;DHT22;22475;51.390;7.180;2023-07-20T13:48:19;20.50;90.40
36450;DHT22;22475;51.390;7.180;2023-07-20T13:50:48;20.60;90.40
36450;DHT22;22475;51.390;7.180;2023-07-20T13:53:15;20.50;90.40
36450;DHT22;22475;51.390;7.180;2023-07-20T13:55:41;20.50;90.40
36450;DHT22;22475;51.390;7.180;2023-07-20T13:58:08;20.50;90.40
36450;DHT22;22475;51.390;7.180;2023-07-20T14:00:36;20.60;90.40
36450;DHT22;22475;51.390;7.180;2023-07-20T14:03:02;20.50;90.40
36450;DHT22;22475;51.390;7.180;2023-07-20T14:05:30;20.50;90.40
36450;DHT22;22475;51.390;7.180;2023-07-20T14:07:57;20.60;90.40
36450;DHT22;22475;51.390;7.180;2023-07-20T14:10:23;20.50;90.40
36450;DHT22;22475;51.390;7.180;2023-07-20T14:12:50;20.50;90.40
36450;DHT22;22475;51.390;7.180;2023-07-20T14:15:17;20.60;90.40
36450;DHT22;22475;51.390;7.180;2023-07-20T14:17:45;20.60;90.40
36450;DHT22;22475;51.390;7.180;2023-07-20T14:20:12;20.50;90.40
36450;DHT22;22475;51.390;7.180;2023-07-20T14:22:40;20.50;90.40
36450;DHT22;22475;51.390;7.180;2023-07-20T14:25:07;20.60;90.40
36450;DHT22;22475;51.390;7.180;2023-07-20T14:27:34;20.60;90.40
36450;DHT22;22475;51.390;7.180;2023-07-20T14:30:00;20.50;90.40
36450;DHT22;22475;51.390;7.180;2023-07-20T14:32:27;20.50;90.40
36450;DHT22;22475;51.390;7.180;2023-07-20T14:34:54;20.60;90.40
36450;DHT22;22475;51.390;7.180;2023-07-20T14:37:20;20.60;90.40
36450;DHT22;22475;51.390;7.180;2023-07-20T14:39:48;20.60;90.40
36450;DHT22;22475;51.390;7.180;2023-07-20T14:42:15;20.60;90.40
36450;DHT22;22475;51.390;7.180;2023-07-20T14:44:41;20.60;90.40
36450;DHT22;22475;51.390;7.180;2023-07-20T14:47:08;20.50;90.40
36450;DHT22;22475;51.390;7.180;2023-07-20T14:49:34;20.60;90.40
36450;DHT22;22475;51.390;7.180;2023-07-20T14:52:01;20.50;90.40
36450;DHT22;22475;51.390;7.180;2023-07-20T14:54:28;20.60;90.40
36450;DHT22;22475;51.390;7.180;2023-07-20T14:56:56;20.60;90.40
36450;DHT22;22475;51.390;7.180;2023-07-20T14:59:23;20.60;90.40
36450;DHT22;22475;51.390;7.180;2023-07-20T15:01:49;20.60;90.80
36450;DHT22;22475;51.390;7.180;2023-07-20T15:04:16;20.60;90.40
36450;DHT22;22475;51.390;7.180;2023-07-20T15:06:43;20.60;90.40
36450;DHT22;22475;51.390;7.180;2023-07-20T15:09:10;20.60;90.40
36450;DHT22;22475;51.390;7.180;2023-07-20T15:11:36;20.60;90.40
36450;DHT22;22475;51.390;7.180;2023-07-20T15:14:04;20.60;90.40
36450;DHT22;22475;51.390;7.180;2023-07-20T15:16:31;20.60;90.40
36450;DHT22;22475;51.390;7.180;2023-07-20T15:18:57;20.60;90.40
36450;DHT22;22475;51.390;7.180;2023-07-20T15:21:24;20.60;90.40
36450;DHT22;22475;51.390;7.180;2023-07-20T15:23:55;20.60;90.40
36450;DHT22;22475;51.390;7.180;2023-07-20T15:26:22;20.60;90.40
36450;DHT22;22475;51.390;7.180;2023-07-20T15:28:48;20.60;90.40
36450;DHT22;22475;51.390;7.180;2023-07-20T15:31:16;20.60;90.40
36450;DHT22;22475;51.390;7.180;2023-07-20T15:33:43;20.60;90.40